sensor_id;sensor_type;location;lat;lon;timestamp;P1;durP1;ratioP1;P2;durP2;ratioP2
67602;SDS011;54417;47.454;18.918;2023-03-31T00:03:02;20.25;;;13.30;;
67602;SDS011;54417;47.454;18.918;2023-03-31T00:08:31;19.73;;;12.20;;
67602;SDS011;54417;47.454;18.918;2023-03-31T00:13:59;28.90;;;13.70;;
67602;SDS011;54417;47.454;18.918;2023-03-31T00:19:22;21.10;;;13.95;;
67602;SDS011;54417;47.454;18.918;2023-03-31T00:24:46;17.42;;;12.55;;
67602;SDS011;54417;47.454;18.918;2023-03-31T00:30:12;21.08;;;12.60;;
67602;SDS011;54417;47.454;18.918;2023-03-31T00:35:37;18.92;;;12.05;;
67602;SDS011;54417;47.454;18.918;2023-03-31T00:41:01;15.50;;;11.38;;
67602;SDS011;54417;47.454;18.918;2023-03-31T00:46:28;15.90;;;12.25;;
67602;SDS011;54417;47.454;18.918;2023-03-31T00:51:56;13.70;;;10.43;;
67602;SDS011;54417;47.454;18.918;2023-03-31T00:57:24;18.85;;;11.43;;
67602;SDS011;54417;47.454;18.918;2023-03-31T01:02:53;18.13;;;11.57;;
67602;SDS011;54417;47.454;18.918;2023-03-31T01:08:20;18.48;;;12.07;;
67602;SDS011;54417;47.454;18.918;2023-03-31T01:13:49;14.57;;;11.20;;
67602;SDS011;54417;47.454;18.918;2023-03-31T01:19:19;17.85;;;12.35;;
67602;SDS011;54417;47.454;18.918;2023-03-31T01:24:59;17.45;;;11.48;;
67602;SDS011;54417;47.454;18.918;2023-03-31T01:31:01;18.48;;;11.57;;
67602;SDS011;54417;47.454;18.918;2023-03-31T01:36:50;18.88;;;11.63;;
67602;SDS011;54417;47.454;18.918;2023-03-31T01:42:37;16.63;;;11.82;;
67602;SDS011;54417;47.454;18.918;2023-03-31T01:48:06;17.85;;;11.13;;
67602;SDS011;54417;47.454;18.918;2023-03-31T01:53:39;15.15;;;10.73;;
67602;SDS011;54417;47.454;18.918;2023-03-31T01:59:13;16.50;;;9.75;;
67602;SDS011;54417;47.454;18.918;2023-03-31T02:04:41;13.25;;;8.55;;
67602;SDS011;54417;47.454;18.918;2023-03-31T02:10:09;14.75;;;8.80;;
67602;SDS011;54417;47.454;18.918;2023-03-31T02:15:37;9.02;;;6.93;;
67602;SDS011;54417;47.454;18.918;2023-03-31T02:21:04;12.80;;;8.00;;
67602;SDS011;54417;47.454;18.918;2023-03-31T02:26:29;12.32;;;6.80;;
67602;SDS011;54417;47.454;18.918;2023-03-31T02:32:01;6.95;;;5.93;;
67602;SDS011;54417;47.454;18.918;2023-03-31T02:37:31;8.18;;;6.53;;
67602;SDS011;54417;47.454;18.918;2023-03-31T02:42:55;8.02;;;5.28;;
67602;SDS011;54417;47.454;18.918;2023-03-31T02:48:21;8.40;;;5.43;;
67602;SDS011;54417;47.454;18.918;2023-03-31T02:53:56;7.93;;;5.65;;
67602;SDS011;54417;47.454;18.918;2023-03-31T03:00:02;9.82;;;7.38;;
67602;SDS011;54417;47.454;18.918;2023-03-31T03:05:40;12.43;;;7.18;;
67602;SDS011;54417;47.454;18.918;2023-03-31T03:11:31;9.77;;;6.93;;
67602;SDS011;54417;47.454;18.918;2023-03-31T03:17:03;10.27;;;6.10;;
67602;SDS011;54417;47.454;18.918;2023-03-31T03:22:34;11.15;;;7.88;;
67602;SDS011;54417;47.454;18.918;2023-03-31T03:27:58;10.35;;;7.40;;
67602;SDS011;54417;47.454;18.918;2023-03-31T03:33:22;14.80;;;7.38;;
67602;SDS011;54417;47.454;18.918;2023-03-31T03:38:47;12.85;;;7.25;;
67602;SDS011;54417;47.454;18.918;2023-03-31T03:44:12;13.82;;;8.40;;
67602;SDS011;54417;47.454;18.918;2023-03-31T03:49:36;17.23;;;8.02;;
67602;SDS011;54417;47.454;18.918;2023-03-31T03:55:01;10.95;;;7.78;;
67602;SDS011;54417;47.454;18.918;2023-03-31T04:00:25;17.17;;;8.55;;
67602;SDS011;54417;47.454;18.918;2023-03-31T04:05:48;16.38;;;8.75;;
67602;SDS011;54417;47.454;18.918;2023-03-31T04:11:14;11.15;;;7.85;;
67602;SDS011;54417;47.454;18.918;2023-03-31T04:16:40;13.00;;;8.50;;
67602;SDS011;54417;47.454;18.918;2023-03-31T04:22:04;16.75;;;8.13;;
67602;SDS011;54417;47.454;18.918;2023-03-31T04:27:34;18.98;;;9.23;;
67602;SDS011;54417;47.454;18.918;2023-03-31T04:32:58;14.13;;;8.85;;
67602;SDS011;54417;47.454;18.918;2023-03-31T04:38:24;17.40;;;10.15;;
67602;SDS011;54417;47.454;18.918;2023-03-31T04:43:56;14.57;;;9.53;;
67602;SDS011;54417;47.454;18.918;2023-03-31T04:49:20;16.05;;;8.57;;
67602;SDS011;54417;47.454;18.918;2023-03-31T04:54:44;15.93;;;9.95;;
67602;SDS011;54417;47.454;18.918;2023-03-31T05:00:10;17.92;;;9.52;;
67602;SDS011;54417;47.454;18.918;2023-03-31T05:05:34;15.90;;;9.82;;
67602;SDS011;54417;47.454;18.918;2023-03-31T05:10:58;16.83;;;9.88;;
67602;SDS011;54417;47.454;18.918;2023-03-31T05:16:23;21.65;;;10.95;;
67602;SDS011;54417;47.454;18.918;2023-03-31T05:21:47;18.58;;;12.60;;
67602;SDS011;54417;47.454;18.918;2023-03-31T05:27:11;16.52;;;11.05;;
67602;SDS011;54417;47.454;18.918;2023-03-31T05:32:36;24.63;;;11.15;;
67602;SDS011;54417;47.454;18.918;2023-03-31T05:38:00;27.65;;;15.30;;
67602;SDS011;54417;47.454;18.918;2023-03-31T05:43:24;29.30;;;16.13;;
67602;SDS011;54417;47.454;18.918;2023-03-31T05:48:49;21.50;;;13.88;;
67602;SDS011;54417;47.454;18.918;2023-03-31T05:54:13;22.15;;;13.30;;
67602;SDS011;54417;47.454;18.918;2023-03-31T05:59:37;15.70;;;10.98;;
67602;SDS011;54417;47.454;18.918;2023-03-31T06:05:04;15.73;;;9.70;;
67602;SDS011;54417;47.454;18.918;2023-03-31T06:10:28;16.77;;;10.25;;
67602;SDS011;54417;47.454;18.918;2023-03-31T06:15:53;16.35;;;10.35;;
67602;SDS011;54417;47.454;18.918;2023-03-31T06:21:19;12.52;;;10.00;;
67602;SDS011;54417;47.454;18.918;2023-03-31T06:26:43;14.25;;;9.85;;
67602;SDS011;54417;47.454;18.918;2023-03-31T06:32:07;13.38;;;10.38;;
67602;SDS011;54417;47.454;18.918;2023-03-31T06:37:32;13.20;;;9.15;;
67602;SDS011;54417;47.454;18.918;2023-03-31T06:42:56;10.15;;;6.07;;
67602;SDS011;54417;47.454;18.918;2023-03-31T06:48:20;11.07;;;6.63;;
67602;SDS011;54417;47.454;18.918;2023-03-31T06:53:46;9.13;;;6.70;;
67602;SDS011;54417;47.454;18.918;2023-03-31T06:59:10;9.25;;;7.38;;
67602;SDS011;54417;47.454;18.918;2023-03-31T07:04:35;8.40;;;6.43;;
67602;SDS011;54417;47.454;18.918;2023-03-31T07:10:00;9.02;;;5.43;;
67602;SDS011;54417;47.454;18.918;2023-03-31T07:15:24;6.95;;;4.90;;
67602;SDS011;54417;47.454;18.918;2023-03-31T07:20:49;8.68;;;4.28;;
67602;SDS011;54417;47.454;18.918;2023-03-31T07:26:15;8.15;;;4.30;;
67602;SDS011;54417;47.454;18.918;2023-03-31T07:31:39;6.35;;;4.18;;
67602;SDS011;54417;47.454;18.918;2023-03-31T07:37:03;9.02;;;3.75;;
67602;SDS011;54417;47.454;18.918;2023-03-31T07:42:28;6.82;;;4.22;;
67602;SDS011;54417;47.454;18.918;2023-03-31T07:47:52;5.03;;;3.50;;
67602;SDS011;54417;47.454;18.918;2023-03-31T07:53:17;5.47;;;3.55;;
67602;SDS011;54417;47.454;18.918;2023-03-31T07:58:42;9.45;;;3.80;;
67602;SDS011;54417;47.454;18.918;2023-03-31T08:04:06;4.22;;;3.33;;
67602;SDS011;54417;47.454;18.918;2023-03-31T08:09:33;5.38;;;3.80;;
67602;SDS011;54417;47.454;18.918;2023-03-31T08:14:58;8.68;;;3.30;;
67602;SDS011;54417;47.454;18.918;2023-03-31T08:20:22;5.70;;;3.45;;
67602;SDS011;54417;47.454;18.918;2023-03-31T08:25:46;9.65;;;4.07;;
67602;SDS011;54417;47.454;18.918;2023-03-31T08:31:11;5.97;;;3.38;;
67602;SDS011;54417;47.454;18.918;2023-03-31T08:36:37;5.43;;;3.55;;
67602;SDS011;54417;47.454;18.918;2023-03-31T08:42:03;4.45;;;3.40;;
67602;SDS011;54417;47.454;18.918;2023-03-31T08:47:38;6.93;;;3.28;;
67602;SDS011;54417;47.454;18.918;2023-03-31T08:53:03;8.02;;;3.15;;
67602;SDS011;54417;47.454;18.918;2023-03-31T08:58:34;5.45;;;2.65;;
67602;SDS011;54417;47.454;18.918;2023-03-31T09:04:08;4.85;;;2.83;;
67602;SDS011;54417;47.454;18.918;2023-03-31T09:09:46;4.28;;;2.60;;
67602;SDS011;54417;47.454;18.918;2023-03-31T09:20:44;5.53;;;2.88;;
67602;SDS011;54417;47.454;18.918;2023-03-31T09:26:17;7.15;;;2.85;;
67602;SDS011;54417;47.454;18.918;2023-03-31T09:31:46;3.25;;;2.78;;
67602;SDS011;54417;47.454;18.918;2023-03-31T09:37:11;6.18;;;3.05;;
67602;SDS011;54417;47.454;18.918;2023-03-31T09:42:35;3.92;;;2.80;;
67602;SDS011;54417;47.454;18.918;2023-03-31T09:48:01;6.38;;;2.53;;
67602;SDS011;54417;47.454;18.918;2023-03-31T09:53:32;3.33;;;2.30;;
67602;SDS011;54417;47.454;18.918;2023-03-31T09:59:01;3.42;;;2.40;;
67602;SDS011;54417;47.454;18.918;2023-03-31T10:04:27;4.03;;;2.67;;
67602;SDS011;54417;47.454;18.918;2023-03-31T10:09:54;7.90;;;2.80;;
67602;SDS011;54417;47.454;18.918;2023-03-31T10:15:19;4.00;;;2.78;;
67602;SDS011;54417;47.454;18.918;2023-03-31T10:20:47;2.13;;;1.92;;
67602;SDS011;54417;47.454;18.918;2023-03-31T10:26:15;5.40;;;2.13;;
67602;SDS011;54417;47.454;18.918;2023-03-31T10:31:41;3.67;;;2.55;;
67602;SDS011;54417;47.454;18.918;2023-03-31T10:37:05;4.47;;;2.30;;
67602;SDS011;54417;47.454;18.918;2023-03-31T10:42:33;4.40;;;2.47;;
67602;SDS011;54417;47.454;18.918;2023-03-31T10:47:58;4.80;;;2.30;;
67602;SDS011;54417;47.454;18.918;2023-03-31T10:53:23;5.13;;;2.47;;
67602;SDS011;54417;47.454;18.918;2023-03-31T10:59:02;16.10;;;2.55;;
67602;SDS011;54417;47.454;18.918;2023-03-31T11:04:41;5.75;;;2.13;;
67602;SDS011;54417;47.454;18.918;2023-03-31T11:16:02;2.97;;;2.05;;
67602;SDS011;54417;47.454;18.918;2023-03-31T11:21:36;5.53;;;2.55;;
67602;SDS011;54417;47.454;18.918;2023-03-31T11:27:11;3.50;;;2.05;;
67602;SDS011;54417;47.454;18.918;2023-03-31T11:32:55;3.90;;;1.90;;
67602;SDS011;54417;47.454;18.918;2023-03-31T11:38:34;3.03;;;2.38;;
67602;SDS011;54417;47.454;18.918;2023-03-31T11:44:08;3.25;;;2.10;;
67602;SDS011;54417;47.454;18.918;2023-03-31T11:49:37;8.02;;;2.58;;
67602;SDS011;54417;47.454;18.918;2023-03-31T11:55:05;5.70;;;2.75;;
67602;SDS011;54417;47.454;18.918;2023-03-31T12:00:37;7.50;;;2.90;;
67602;SDS011;54417;47.454;18.918;2023-03-31T12:06:08;4.57;;;2.42;;
67602;SDS011;54417;47.454;18.918;2023-03-31T12:11:39;2.45;;;1.92;;
67602;SDS011;54417;47.454;18.918;2023-03-31T12:17:09;4.78;;;1.77;;
67602;SDS011;54417;47.454;18.918;2023-03-31T12:22:37;3.30;;;1.92;;
67602;SDS011;54417;47.454;18.918;2023-03-31T12:28:05;5.80;;;2.15;;
67602;SDS011;54417;47.454;18.918;2023-03-31T12:33:29;4.85;;;2.22;;
67602;SDS011;54417;47.454;18.918;2023-03-31T12:39:00;3.72;;;1.90;;
67602;SDS011;54417;47.454;18.918;2023-03-31T12:44:35;7.40;;;2.90;;
67602;SDS011;54417;47.454;18.918;2023-03-31T12:50:17;4.85;;;2.45;;
67602;SDS011;54417;47.454;18.918;2023-03-31T12:56:02;3.05;;;1.67;;
67602;SDS011;54417;47.454;18.918;2023-03-31T13:01:27;3.55;;;1.90;;
67602;SDS011;54417;47.454;18.918;2023-03-31T13:06:53;5.05;;;2.00;;
67602;SDS011;54417;47.454;18.918;2023-03-31T13:12:20;2.50;;;1.77;;
67602;SDS011;54417;47.454;18.918;2023-03-31T13:17:56;3.20;;;1.75;;
67602;SDS011;54417;47.454;18.918;2023-03-31T13:23:21;4.97;;;1.95;;
67602;SDS011;54417;47.454;18.918;2023-03-31T13:28:49;4.53;;;2.25;;
67602;SDS011;54417;47.454;18.918;2023-03-31T13:34:33;5.60;;;2.67;;
67602;SDS011;54417;47.454;18.918;2023-03-31T13:40:12;3.50;;;1.95;;
67602;SDS011;54417;47.454;18.918;2023-03-31T13:46:03;3.40;;;1.40;;
67602;SDS011;54417;47.454;18.918;2023-03-31T13:51:40;3.38;;;1.63;;
67602;SDS011;54417;47.454;18.918;2023-03-31T14:03:21;3.00;;;1.75;;
67602;SDS011;54417;47.454;18.918;2023-03-31T14:08:53;4.22;;;1.92;;
67602;SDS011;54417;47.454;18.918;2023-03-31T14:14:23;2.93;;;1.63;;
67602;SDS011;54417;47.454;18.918;2023-03-31T14:20:07;3.88;;;1.60;;
67602;SDS011;54417;47.454;18.918;2023-03-31T14:25:47;3.63;;;1.73;;
67602;SDS011;54417;47.454;18.918;2023-03-31T14:31:15;7.43;;;1.80;;
67602;SDS011;54417;47.454;18.918;2023-03-31T14:36:48;4.20;;;1.77;;
67602;SDS011;54417;47.454;18.918;2023-03-31T14:42:20;3.55;;;1.42;;
67602;SDS011;54417;47.454;18.918;2023-03-31T14:47:52;5.63;;;1.95;;
67602;SDS011;54417;47.454;18.918;2023-03-31T14:53:22;3.13;;;1.77;;
67602;SDS011;54417;47.454;18.918;2023-03-31T14:58:47;4.97;;;1.90;;
67602;SDS011;54417;47.454;18.918;2023-03-31T15:04:15;4.38;;;1.65;;
67602;SDS011;54417;47.454;18.918;2023-03-31T15:09:58;5.03;;;1.63;;
67602;SDS011;54417;47.454;18.918;2023-03-31T15:15:22;6.00;;;1.98;;
67602;SDS011;54417;47.454;18.918;2023-03-31T15:20:46;5.90;;;1.52;;
67602;SDS011;54417;47.454;18.918;2023-03-31T15:26:11;3.28;;;1.83;;
67602;SDS011;54417;47.454;18.918;2023-03-31T15:31:46;5.43;;;2.10;;
67602;SDS011;54417;47.454;18.918;2023-03-31T15:37:11;6.90;;;2.45;;
67602;SDS011;54417;47.454;18.918;2023-03-31T15:42:36;4.85;;;1.98;;
67602;SDS011;54417;47.454;18.918;2023-03-31T15:48:02;2.95;;;1.98;;
67602;SDS011;54417;47.454;18.918;2023-03-31T15:53:31;3.80;;;1.98;;
67602;SDS011;54417;47.454;18.918;2023-03-31T15:59:01;3.10;;;1.90;;
67602;SDS011;54417;47.454;18.918;2023-03-31T16:04:28;2.97;;;1.85;;
67602;SDS011;54417;47.454;18.918;2023-03-31T16:09:55;4.93;;;1.77;;
67602;SDS011;54417;47.454;18.918;2023-03-31T16:15:27;4.30;;;2.30;;
67602;SDS011;54417;47.454;18.918;2023-03-31T16:20:57;6.78;;;1.90;;
67602;SDS011;54417;47.454;18.918;2023-03-31T16:26:26;4.68;;;2.40;;
67602;SDS011;54417;47.454;18.918;2023-03-31T16:31:58;3.85;;;2.00;;
67602;SDS011;54417;47.454;18.918;2023-03-31T16:37:29;4.50;;;2.00;;
67602;SDS011;54417;47.454;18.918;2023-03-31T16:43:10;4.28;;;2.03;;
67602;SDS011;54417;47.454;18.918;2023-03-31T16:48:37;4.53;;;1.80;;
67602;SDS011;54417;47.454;18.918;2023-03-31T16:54:01;2.28;;;1.50;;
67602;SDS011;54417;47.454;18.918;2023-03-31T16:59:24;3.53;;;2.28;;
67602;SDS011;54417;47.454;18.918;2023-03-31T17:04:50;5.55;;;2.25;;
67602;SDS011;54417;47.454;18.918;2023-03-31T17:10:34;9.77;;;2.72;;
67602;SDS011;54417;47.454;18.918;2023-03-31T17:15:57;15.02;;;5.55;;
67602;SDS011;54417;47.454;18.918;2023-03-31T17:21:39;11.48;;;4.70;;
67602;SDS011;54417;47.454;18.918;2023-03-31T17:27:03;25.27;;;6.65;;
67602;SDS011;54417;47.454;18.918;2023-03-31T17:32:27;12.38;;;4.65;;
67602;SDS011;54417;47.454;18.918;2023-03-31T17:37:52;12.73;;;4.30;;
67602;SDS011;54417;47.454;18.918;2023-03-31T17:43:16;10.55;;;4.10;;
67602;SDS011;54417;47.454;18.918;2023-03-31T17:48:40;9.13;;;4.25;;
67602;SDS011;54417;47.454;18.918;2023-03-31T17:54:06;14.30;;;5.88;;
67602;SDS011;54417;47.454;18.918;2023-03-31T17:59:30;13.93;;;5.32;;
67602;SDS011;54417;47.454;18.918;2023-03-31T18:04:54;8.85;;;4.00;;
67602;SDS011;54417;47.454;18.918;2023-03-31T18:10:19;11.07;;;5.13;;
67602;SDS011;54417;47.454;18.918;2023-03-31T18:15:44;9.77;;;3.70;;
67602;SDS011;54417;47.454;18.918;2023-03-31T18:21:11;5.32;;;2.60;;
67602;SDS011;54417;47.454;18.918;2023-03-31T18:26:37;7.00;;;2.45;;
67602;SDS011;54417;47.454;18.918;2023-03-31T18:32:01;5.70;;;2.42;;
67602;SDS011;54417;47.454;18.918;2023-03-31T18:37:25;3.92;;;2.25;;
67602;SDS011;54417;47.454;18.918;2023-03-31T18:42:51;3.63;;;3.05;;
67602;SDS011;54417;47.454;18.918;2023-03-31T18:48:14;8.23;;;2.80;;
67602;SDS011;54417;47.454;18.918;2023-03-31T18:53:39;6.00;;;2.45;;
67602;SDS011;54417;47.454;18.918;2023-03-31T18:59:05;10.48;;;3.25;;
67602;SDS011;54417;47.454;18.918;2023-03-31T19:04:28;4.68;;;2.83;;
67602;SDS011;54417;47.454;18.918;2023-03-31T19:09:52;3.97;;;2.47;;
67602;SDS011;54417;47.454;18.918;2023-03-31T19:15:18;5.63;;;2.47;;
67602;SDS011;54417;47.454;18.918;2023-03-31T19:20:42;2.70;;;2.42;;
67602;SDS011;54417;47.454;18.918;2023-03-31T19:26:10;5.35;;;3.08;;
67602;SDS011;54417;47.454;18.918;2023-03-31T19:31:37;7.93;;;2.17;;
67602;SDS011;54417;47.454;18.918;2023-03-31T19:37:02;4.88;;;2.80;;
67602;SDS011;54417;47.454;18.918;2023-03-31T19:42:26;3.10;;;1.83;;
67602;SDS011;54417;47.454;18.918;2023-03-31T19:47:51;1.45;;;1.35;;
67602;SDS011;54417;47.454;18.918;2023-03-31T19:53:15;3.17;;;1.70;;
67602;SDS011;54417;47.454;18.918;2023-03-31T19:58:39;2.50;;;1.67;;
67602;SDS011;54417;47.454;18.918;2023-03-31T20:04:05;2.10;;;1.20;;
67602;SDS011;54417;47.454;18.918;2023-03-31T20:09:29;2.33;;;1.30;;
67602;SDS011;54417;47.454;18.918;2023-03-31T20:14:53;3.03;;;1.40;;
67602;SDS011;54417;47.454;18.918;2023-03-31T20:20:18;2.80;;;1.33;;
67602;SDS011;54417;47.454;18.918;2023-03-31T20:25:42;1.88;;;1.50;;
67602;SDS011;54417;47.454;18.918;2023-03-31T20:31:09;3.35;;;1.40;;
67602;SDS011;54417;47.454;18.918;2023-03-31T20:36:36;2.45;;;1.52;;
67602;SDS011;54417;47.454;18.918;2023-03-31T20:42:01;4.32;;;1.70;;
67602;SDS011;54417;47.454;18.918;2023-03-31T20:47:25;4.32;;;2.03;;
67602;SDS011;54417;47.454;18.918;2023-03-31T20:52:50;3.95;;;1.55;;
67602;SDS011;54417;47.454;18.918;2023-03-31T20:58:14;2.58;;;1.92;;
67602;SDS011;54417;47.454;18.918;2023-03-31T21:03:38;13.63;;;1.60;;
67602;SDS011;54417;47.454;18.918;2023-03-31T21:09:03;3.15;;;1.52;;
67602;SDS011;54417;47.454;18.918;2023-03-31T21:14:28;1.58;;;1.48;;
67602;SDS011;54417;47.454;18.918;2023-03-31T21:19:51;2.60;;;1.55;;
67602;SDS011;54417;47.454;18.918;2023-03-31T21:25:17;2.15;;;1.85;;
67602;SDS011;54417;47.454;18.918;2023-03-31T21:30:47;5.72;;;1.70;;
67602;SDS011;54417;47.454;18.918;2023-03-31T21:36:13;3.78;;;1.55;;
67602;SDS011;54417;47.454;18.918;2023-03-31T21:41:40;2.38;;;1.80;;
67602;SDS011;54417;47.454;18.918;2023-03-31T21:47:04;2.38;;;1.80;;
67602;SDS011;54417;47.454;18.918;2023-03-31T21:52:28;3.05;;;1.80;;
67602;SDS011;54417;47.454;18.918;2023-03-31T21:57:53;2.83;;;1.67;;
67602;SDS011;54417;47.454;18.918;2023-03-31T22:03:17;2.15;;;1.67;;
67602;SDS011;54417;47.454;18.918;2023-03-31T22:08:49;1.95;;;1.70;;
67602;SDS011;54417;47.454;18.918;2023-03-31T22:14:14;3.17;;;1.70;;
67602;SDS011;54417;47.454;18.918;2023-03-31T22:19:38;5.07;;;1.75;;
67602;SDS011;54417;47.454;18.918;2023-03-31T22:25:01;4.30;;;2.20;;
67602;SDS011;54417;47.454;18.918;2023-03-31T22:30:27;3.53;;;1.60;;
67602;SDS011;54417;47.454;18.918;2023-03-31T22:35:51;2.90;;;1.67;;
67602;SDS011;54417;47.454;18.918;2023-03-31T22:41:14;2.22;;;1.65;;
67602;SDS011;54417;47.454;18.918;2023-03-31T22:46:40;2.78;;;1.88;;
67602;SDS011;54417;47.454;18.918;2023-03-31T22:52:07;3.72;;;2.33;;
67602;SDS011;54417;47.454;18.918;2023-03-31T22:57:31;3.63;;;1.75;;
67602;SDS011;54417;47.454;18.918;2023-03-31T23:02:56;4.45;;;1.90;;
67602;SDS011;54417;47.454;18.918;2023-03-31T23:08:20;7.05;;;2.25;;
67602;SDS011;54417;47.454;18.918;2023-03-31T23:13:44;2.40;;;1.77;;
67602;SDS011;54417;47.454;18.918;2023-03-31T23:19:09;5.72;;;2.03;;
67602;SDS011;54417;47.454;18.918;2023-03-31T23:24:34;5.03;;;2.17;;
67602;SDS011;54417;47.454;18.918;2023-03-31T23:29:57;4.95;;;2.63;;
67602;SDS011;54417;47.454;18.918;2023-03-31T23:35:23;31.90;;;9.73;;
67602;SDS011;54417;47.454;18.918;2023-03-31T23:40:46;30.08;;;10.48;;
67602;SDS011;54417;47.454;18.918;2023-03-31T23:46:10;17.10;;;6.65;;
67602;SDS011;54417;47.454;18.918;2023-03-31T23:51:36;12.80;;;4.38;;
67602;SDS011;54417;47.454;18.918;2023-03-31T23:57:00;4.47;;;2.20;;
